Time;durP1;ratioP1;P1;durP2;ratioP2;P2;SDS_P1;SDS_P2;PMS_P1;PMS_P2;Temp;Humidity;BMP_temperature;BMP_pressure;BME280_temperature;BME280_humidity;BME280_pressure;Samples;Min_cycle;Max_cycle;Signal;HPM_P1;HPM_P2
2022/09/29 00:01:17;;;;;;;9.60;7.77;;;8.00;99.90;;;;;;5067896;28;20204;-63
2022/09/29 00:03:46;;;;;;;10.13;6.67;;;8.10;99.90;;;;;;5080699;28;20222;-63
2022/09/29 00:06:16;;;;;;;10.90;7.13;;;8.10;99.90;;;;;;5072788;28;20702;-63
2022/09/29 00:08:47;;;;;;;10.10;7.10;;;8.10;99.90;;;;;;5068173;28;20195;-63
2022/09/29 00:11:16;;;;;;;7.70;7.00;;;8.20;99.90;;;;;;5072541;28;20197;-63
2022/09/29 00:13:45;;;;;;;7.80;6.97;;;8.20;99.90;;;;;;5069298;28;20647;-63
2022/09/29 00:16:14;;;;;;;7.97;7.17;;;8.30;99.90;;;;;;5070272;28;20705;-63
2022/09/29 00:18:43;;;;;;;7.50;6.77;;;8.30;99.90;;;;;;5077526;28;20283;-63
2022/09/29 00:21:13;;;;;;;11.87;6.97;;;8.30;99.90;;;;;;5076403;28;20191;-63
2022/09/29 00:23:42;;;;;;;9.37;7.80;;;8.40;99.90;;;;;;5071860;28;20188;-63
2022/09/29 00:26:13;;;;;;;11.90;7.67;;;8.40;99.90;;;;;;5076472;28;20199;-63
2022/09/29 00:28:46;;;;;;;10.40;7.80;;;8.40;99.90;;;;;;5073386;28;20231;-63
2022/09/29 00:31:14;;;;;;;12.37;7.80;;;8.50;99.90;;;;;;5066249;28;20207;-63
2022/09/29 00:33:42;;;;;;;13.63;8.43;;;8.50;99.90;;;;;;5074409;28;20226;-63
2022/09/29 00:36:13;;;;;;;10.83;8.07;;;8.50;99.90;;;;;;5071707;28;20192;-62
2022/09/29 00:38:42;;;;;;;9.53;8.20;;;8.50;99.90;;;;;;5074047;28;20214;-63
2022/09/29 00:41:17;;;;;;;11.87;8.37;;;8.50;99.90;;;;;;5071420;28;20600;-63
2022/09/29 00:43:55;;;;;;;11.97;8.27;;;8.50;99.90;;;;;;5072551;28;20207;-63
2022/09/29 00:46:40;;;;;;;9.20;8.10;;;8.60;99.90;;;;;;5071191;28;20203;-63
2022/09/29 00:49:15;;;;;;;12.10;8.30;;;8.60;99.90;;;;;;5064334;28;20574;-63
2022/09/29 00:51:46;;;;;;;10.30;7.90;;;8.60;99.90;;;;;;5075822;28;20196;-63
2022/09/29 00:54:16;;;;;;;13.37;8.77;;;8.50;99.90;;;;;;5066909;28;20243;-63
2022/09/29 00:56:47;;;;;;;13.23;8.47;;;8.60;99.90;;;;;;5067389;28;20351;-63
2022/09/29 00:59:20;;;;;;;11.17;8.27;;;8.50;99.90;;;;;;5075439;28;20200;-63
2022/09/29 01:01:49;;;;;;;9.50;8.13;;;8.50;99.90;;;;;;5071491;28;20209;-63
2022/09/29 01:04:21;;;;;;;10.93;8.63;;;8.50;99.90;;;;;;5073787;28;20204;-63
2022/09/29 01:06:53;;;;;;;9.70;8.80;;;8.50;99.90;;;;;;5085044;28;20235;-63
2022/09/29 01:09:26;;;;;;;11.57;8.40;;;8.50;99.90;;;;;;5069875;28;20191;-63
2022/09/29 01:11:58;;;;;;;11.20;8.87;;;8.50;99.90;;;;;;5064536;28;20195;-63
2022/09/29 01:14:27;;;;;;;10.53;8.90;;;8.50;99.90;;;;;;5077689;28;20199;-63
2022/09/29 01:16:55;;;;;;;12.17;8.90;;;8.40;99.90;;;;;;5061845;28;20697;-63
2022/09/29 01:19:33;;;;;;;12.23;8.40;;;8.40;99.90;;;;;;5079734;28;20199;-63
2022/09/29 01:22:12;;;;;;;12.17;8.67;;;8.40;99.90;;;;;;5068872;28;20196;-63
2022/09/29 01:24:58;;;;;;;13.77;9.20;;;8.30;99.90;;;;;;5062498;28;20211;-63
2022/09/29 01:27:59;;;;;;;9.83;8.30;;;8.30;99.90;;;;;;5079423;28;20734;-63
2022/09/29 01:30:43;;;;;;;11.50;8.67;;;8.20;99.90;;;;;;5065353;28;20572;-63
2022/09/29 01:33:21;;;;;;;13.37;8.47;;;8.20;99.90;;;;;;5070583;28;20597;-63
2022/09/29 01:36:00;;;;;;;9.80;8.37;;;8.20;99.90;;;;;;5069949;28;20200;-63
2022/09/29 01:38:51;;;;;;;10.70;9.00;;;8.10;99.90;;;;;;5067308;28;20195;-63
2022/09/29 01:41:30;;;;;;;13.53;8.80;;;8.10;99.90;;;;;;5093535;28;20220;-63
2022/09/29 01:44:04;;;;;;;14.47;8.80;;;8.00;99.90;;;;;;5070822;28;20207;-63
2022/09/29 01:46:37;;;;;;;11.10;8.60;;;8.00;99.90;;;;;;5074427;28;20203;-63
2022/09/29 01:49:08;;;;;;;13.13;8.77;;;8.00;99.90;;;;;;5071900;28;20196;-63
2022/09/29 01:51:41;;;;;;;12.03;8.93;;;8.00;99.90;;;;;;5072477;28;20188;-63
2022/09/29 01:54:14;;;;;;;9.90;8.90;;;8.00;99.90;;;;;;5066193;28;20208;-63
2022/09/29 01:56:48;;;;;;;17.13;9.87;;;8.00;99.90;;;;;;5082396;28;20279;-63
2022/09/29 01:59:22;;;;;;;15.83;10.23;;;8.00;99.90;;;;;;5076929;28;21166;-63
2022/09/29 02:02:04;;;;;;;14.97;10.53;;;7.90;99.90;;;;;;5070080;28;20548;-63
2022/09/29 02:04:36;;;;;;;15.60;10.43;;;8.00;99.90;;;;;;5067886;28;20224;-63
2022/09/29 02:07:08;;;;;;;14.23;10.20;;;8.00;99.90;;;;;;5069286;28;20223;-62
2022/09/29 02:09:43;;;;;;;15.70;11.87;;;8.00;99.90;;;;;;5058666;28;20708;-63
2022/09/29 02:12:17;;;;;;;17.57;11.40;;;8.00;99.90;;;;;;5068961;28;20183;-62
2022/09/29 02:14:48;;;;;;;15.47;10.70;;;8.00;99.90;;;;;;5073673;28;20643;-62
2022/09/29 02:17:20;;;;;;;14.93;11.63;;;8.00;99.90;;;;;;5088818;28;20199;-63
2022/09/29 02:19:51;;;;;;;16.27;12.03;;;8.00;99.90;;;;;;5066567;28;20204;-63
2022/09/29 02:22:20;;;;;;;15.63;11.97;;;8.00;99.90;;;;;;5099802;27;20200;-63
2022/09/29 02:24:52;;;;;;;25.83;12.20;;;8.00;99.90;;;;;;5070473;28;20196;-63
2022/09/29 02:27:21;;;;;;;15.93;11.53;;;7.90;99.90;;;;;;5066282;28;20776;-62
2022/09/29 02:29:50;;;;;;;15.77;12.10;;;7.90;99.90;;;;;;5049726;28;20191;-63
2022/09/29 02:32:20;;;;;;;17.13;11.73;;;7.90;99.90;;;;;;5069432;28;20216;-63
2022/09/29 02:34:52;;;;;;;17.03;11.70;;;7.80;99.90;;;;;;5065709;28;20224;-63
2022/09/29 02:37:36;;;;;;;17.37;12.30;;;7.80;99.90;;;;;;5062863;28;20554;-63
2022/09/29 02:40:28;;;;;;;17.40;12.13;;;7.70;99.90;;;;;;5065614;28;20183;-63
2022/09/29 02:43:12;;;;;;;21.43;12.20;;;7.70;99.90;;;;;;5068955;28;20216;-62
2022/09/29 02:45:55;;;;;;;17.10;12.07;;;7.70;99.90;;;;;;5067830;28;20200;-63
2022/09/29 02:48:47;;;;;;;17.37;11.77;;;7.60;99.90;;;;;;5069529;28;20222;-63
2022/09/29 02:51:20;;;;;;;19.03;11.97;;;7.50;99.90;;;;;;5061597;28;20203;-63
2022/09/29 02:54:09;;;;;;;15.37;11.77;;;7.50;99.90;;;;;;5068307;28;20227;-63
2022/09/29 02:56:45;;;;;;;24.03;12.43;;;7.50;99.90;;;;;;5045936;28;20311;-63
2022/09/29 02:59:18;;;;;;;18.20;12.40;;;7.40;99.90;;;;;;5061317;28;20706;-63
2022/09/29 03:01:50;;;;;;;16.23;11.33;;;7.40;99.90;;;;;;5067006;28;20199;-62
2022/09/29 03:04:22;;;;;;;18.00;11.60;;;7.40;99.90;;;;;;5078254;28;20212;-62
2022/09/29 03:06:51;;;;;;;18.83;12.10;;;7.30;99.90;;;;;;5065799;28;20220;-62
2022/09/29 03:09:20;;;;;;;15.93;11.67;;;7.30;99.90;;;;;;5066411;28;20612;-62
2022/09/29 03:11:49;;;;;;;16.87;11.93;;;7.20;99.90;;;;;;5063229;28;20226;-62
2022/09/29 03:14:17;;;;;;;14.37;10.97;;;7.20;99.90;;;;;;5068374;28;20208;-63
2022/09/29 03:16:47;;;;;;;17.27;11.37;;;7.10;99.90;;;;;;5080095;28;20203;-63
2022/09/29 03:19:15;;;;;;;15.57;11.50;;;7.00;99.90;;;;;;5065014;28;20271;-62
2022/09/29 03:21:45;;;;;;;16.80;11.80;;;7.00;99.90;;;;;;5074752;28;20249;-63
2022/09/29 03:24:13;;;;;;;13.27;11.13;;;6.90;99.90;;;;;;5066796;28;20517;-62
2022/09/29 03:26:42;;;;;;;16.83;12.53;;;6.80;99.90;;;;;;5060973;28;20200;-63
2022/09/29 03:29:10;;;;;;;15.40;10.80;;;6.80;99.90;;;;;;5079326;28;20202;-62
2022/09/29 03:31:40;;;;;;;18.77;11.47;;;6.80;99.90;;;;;;5077535;28;20204;-62
2022/09/29 03:34:08;;;;;;;14.73;11.50;;;6.70;99.90;;;;;;5074343;28;20690;-62
2022/09/29 03:36:36;;;;;;;18.50;10.87;;;6.70;99.90;;;;;;5081027;28;20219;-62
2022/09/29 03:39:06;;;;;;;14.50;11.30;;;6.60;99.90;;;;;;5084363;28;20199;-62
2022/09/29 03:41:35;;;;;;;21.60;11.77;;;6.60;99.90;;;;;;5082672;28;20200;-63
2022/09/29 03:44:03;;;;;;;17.93;11.07;;;6.60;99.90;;;;;;5065277;28;20212;-62
2022/09/29 03:46:32;;;;;;;18.33;11.20;;;6.50;99.90;;;;;;5077597;28;20199;-62
2022/09/29 03:49:00;;;;;;;14.87;10.90;;;6.40;99.90;;;;;;5082769;28;20193;-62
2022/09/29 03:51:28;;;;;;;14.40;10.37;;;6.40;99.90;;;;;;5076399;28;20199;-62
2022/09/29 03:53:59;;;;;;;14.90;10.93;;;6.30;99.90;;;;;;5082579;28;20558;-62
2022/09/29 03:56:29;;;;;;;17.10;11.60;;;6.40;99.90;;;;;;5086245;28;20222;-62
2022/09/29 03:58:58;;;;;;;13.03;10.47;;;6.30;99.90;;;;;;5076228;28;20196;-62
2022/09/29 04:01:26;;;;;;;16.37;10.90;;;6.30;99.90;;;;;;5080951;28;20192;-62
2022/09/29 04:03:54;;;;;;;16.83;11.03;;;6.30;99.90;;;;;;5073664;28;20675;-62
2022/09/29 04:06:25;;;;;;;15.60;11.43;;;6.30;99.90;;;;;;5084878;28;20231;-62
2022/09/29 04:08:53;;;;;;;21.50;10.77;;;6.40;99.90;;;;;;5083786;28;20192;-62
2022/09/29 04:11:21;;;;;;;17.73;11.00;;;6.30;99.90;;;;;;5089565;28;20578;-62
2022/09/29 04:13:52;;;;;;;18.10;11.10;;;6.30;99.90;;;;;;5079976;28;20211;-62
2022/09/29 04:16:20;;;;;;;15.80;11.17;;;6.30;99.90;;;;;;5066491;28;20192;-62
2022/09/29 04:18:48;;;;;;;15.20;10.70;;;6.30;99.90;;;;;;5081659;28;20917;-62
2022/09/29 04:21:17;;;;;;;12.30;10.47;;;6.20;99.90;;;;;;5070267;28;20196;-62
2022/09/29 04:23:46;;;;;;;16.47;11.80;;;6.20;99.90;;;;;;5074808;28;20246;-62
2022/09/29 04:26:14;;;;;;;15.83;11.37;;;6.20;99.90;;;;;;5079338;28;20192;-62
2022/09/29 04:28:43;;;;;;;16.73;11.50;;;6.20;99.90;;;;;;5104366;28;20188;-62
2022/09/29 04:31:12;;;;;;;18.07;12.13;;;6.10;99.90;;;;;;5074078;28;20669;-62
2022/09/29 04:33:41;;;;;;;20.60;12.37;;;6.10;99.90;;;;;;5072183;28;20205;-62
2022/09/29 04:36:09;;;;;;;18.93;11.70;;;6.10;99.90;;;;;;5062655;28;20197;-62
2022/09/29 04:38:37;;;;;;;19.97;12.40;;;6.20;99.90;;;;;;5073411;28;20677;-62
2022/09/29 04:41:06;;;;;;;18.30;12.80;;;6.10;99.90;;;;;;5066323;28;20188;-62
2022/09/29 04:43:35;;;;;;;19.43;12.73;;;6.10;99.90;;;;;;5071592;28;20231;-62
2022/09/29 04:46:05;;;;;;;21.70;13.23;;;6.10;99.90;;;;;;5064425;28;20658;-62
2022/09/29 04:48:36;;;;;;;20.90;12.97;;;6.10;99.90;;;;;;5065817;28;20192;-62
2022/09/29 04:51:06;;;;;;;21.10;13.17;;;6.10;99.90;;;;;;5069692;28;20596;-62
2022/09/29 04:53:35;;;;;;;17.70;13.53;;;6.10;99.90;;;;;;5079675;28;20195;-62
2022/09/29 04:56:07;;;;;;;19.83;14.17;;;6.10;99.90;;;;;;5070594;28;20725;-62
2022/09/29 04:58:36;;;;;;;22.00;13.23;;;6.10;99.90;;;;;;5066977;28;20206;-62
2022/09/29 05:01:08;;;;;;;24.93;14.10;;;6.10;99.90;;;;;;5068611;28;20195;-62
2022/09/29 05:03:38;;;;;;;20.27;13.73;;;6.10;99.90;;;;;;5094309;28;20272;-62
2022/09/29 05:06:07;;;;;;;19.47;13.40;;;6.10;99.90;;;;;;5071077;28;20289;-62
2022/09/29 05:08:36;;;;;;;20.37;13.70;;;6.10;99.90;;;;;;5067208;28;20561;-63
2022/09/29 05:11:06;;;;;;;18.63;13.27;;;6.10;99.90;;;;;;5074722;28;20216;-62
2022/09/29 05:13:34;;;;;;;23.97;13.40;;;6.10;99.90;;;;;;5076295;28;20643;-62
2022/09/29 05:16:03;;;;;;;19.97;13.40;;;6.10;99.90;;;;;;5066678;28;20597;-62
2022/09/29 05:18:32;;;;;;;24.27;14.00;;;6.10;99.90;;;;;;5059387;28;20213;-62
2022/09/29 05:21:05;;;;;;;21.93;13.80;;;6.10;99.90;;;;;;5062923;28;20196;-62
2022/09/29 05:23:53;;;;;;;24.13;14.10;;;6.10;99.90;;;;;;5060941;28;20664;-62
2022/09/29 05:26:22;;;;;;;24.90;15.07;;;6.10;99.90;;;;;;5067165;28;20184;-62
2022/09/29 05:28:50;;;;;;;27.70;15.37;;;6.10;99.90;;;;;;5087129;28;20191;-62
2022/09/29 05:31:19;;;;;;;28.83;16.93;;;6.00;99.90;;;;;;5063728;28;21879;-62
2022/09/29 05:33:47;;;;;;;26.50;16.50;;;6.00;99.90;;;;;;5067887;28;20188;-62
2022/09/29 05:36:17;;;;;;;24.27;16.07;;;6.00;99.90;;;;;;5062922;28;20290;-62
2022/09/29 05:38:45;;;;;;;24.70;15.43;;;6.00;99.90;;;;;;5067149;28;20188;-62
2022/09/29 05:41:15;;;;;;;29.07;15.97;;;6.00;99.90;;;;;;5067135;28;20228;-62
2022/09/29 05:43:43;;;;;;;25.23;15.63;;;6.00;99.90;;;;;;5061852;28;20212;-62
2022/09/29 05:46:11;;;;;;;21.87;14.83;;;6.00;99.90;;;;;;5070341;28;20188;-62
2022/09/29 05:48:40;;;;;;;24.37;14.47;;;6.00;99.90;;;;;;5068642;28;20200;-62
2022/09/29 05:51:10;;;;;;;23.80;13.63;;;6.00;99.90;;;;;;5065767;28;20188;-62
2022/09/29 05:53:40;;;;;;;20.80;14.30;;;6.00;99.90;;;;;;5068540;28;20258;-62
2022/09/29 05:56:09;;;;;;;19.20;13.97;;;6.00;99.90;;;;;;5067196;28;20222;-62
2022/09/29 05:58:38;;;;;;;25.37;14.77;;;6.00;99.90;;;;;;5066539;28;20207;-62
2022/09/29 06:01:07;;;;;;;26.50;14.90;;;6.10;99.90;;;;;;5070018;28;20593;-62
2022/09/29 06:03:36;;;;;;;26.37;14.50;;;6.10;99.90;;;;;;5067514;28;20230;-62
2022/09/29 06:06:06;;;;;;;19.77;13.63;;;6.10;99.90;;;;;;5072868;28;20232;-62
2022/09/29 06:08:35;;;;;;;25.53;13.50;;;6.10;99.90;;;;;;5076986;28;20203;-62
2022/09/29 06:11:09;;;;;;;25.23;14.13;;;6.10;99.90;;;;;;5060009;28;20658;-62
2022/09/29 06:13:38;;;;;;;27.70;13.87;;;6.10;99.90;;;;;;5056578;28;20207;-62
2022/09/29 06:16:07;;;;;;;21.73;13.77;;;6.20;99.90;;;;;;5067229;28;20569;-62
2022/09/29 06:18:36;;;;;;;18.67;13.57;;;6.20;99.90;;;;;;5066218;28;20207;-62
2022/09/29 06:21:06;;;;;;;19.73;12.83;;;6.30;99.90;;;;;;5067421;28;20181;-62
2022/09/29 06:23:35;;;;;;;26.97;14.20;;;6.30;99.90;;;;;;5102702;28;20188;-62
2022/09/29 06:26:08;;;;;;;20.00;13.60;;;6.40;99.90;;;;;;5059774;28;20198;-62
2022/09/29 06:28:37;;;;;;;20.73;13.87;;;6.40;99.90;;;;;;5066176;28;20203;-62
2022/09/29 06:31:08;;;;;;;22.37;14.40;;;6.50;99.90;;;;;;5064810;28;20200;-62
2022/09/29 06:33:36;;;;;;;19.73;13.67;;;6.50;99.90;;;;;;5061290;28;20207;-62
2022/09/29 06:38:56;;;;;;;21.10;12.87;;;6.70;99.90;;;;;;5069749;28;20215;-62
2022/09/29 06:41:28;;;;;;;23.00;12.90;;;6.70;99.90;;;;;;5063791;28;20187;-62
2022/09/29 06:43:58;;;;;;;18.93;12.93;;;6.80;99.90;;;;;;5065744;28;20246;-62
2022/09/29 06:46:27;;;;;;;19.37;12.97;;;6.90;99.90;;;;;;5064673;28;20195;-62
2022/09/29 06:48:55;;;;;;;18.27;12.50;;;6.90;99.90;;;;;;5069455;28;20761;-62
2022/09/29 06:51:25;;;;;;;25.80;12.40;;;7.00;99.90;;;;;;5079314;28;20191;-62
2022/09/29 06:54:10;;;;;;;21.90;12.73;;;7.20;99.90;;;;;;5076256;28;20203;-62
2022/09/29 06:56:41;;;;;;;20.13;12.13;;;7.30;99.90;;;;;;5065356;28;20295;-62
2022/09/29 06:59:09;;;;;;;18.10;11.93;;;7.40;99.90;;;;;;5064917;28;20196;-62
2022/09/29 07:01:38;;;;;;;17.03;12.37;;;7.50;99.90;;;;;;5072397;28;20859;-62
2022/09/29 07:04:06;;;;;;;22.50;12.63;;;7.60;99.90;;;;;;5069118;28;20203;-62
2022/09/29 07:06:35;;;;;;;15.83;11.50;;;7.80;99.90;;;;;;5060510;28;20222;-63
2022/09/29 07:09:03;;;;;;;17.37;10.83;;;7.90;99.90;;;;;;5066172;28;20200;-62
2022/09/29 07:11:31;;;;;;;17.93;12.73;;;8.10;99.90;;;;;;5061359;28;20243;-62
2022/09/29 07:14:01;;;;;;;13.70;10.63;;;8.40;99.90;;;;;;5062836;28;20267;-62
2022/09/29 07:16:30;;;;;;;18.70;10.33;;;8.70;99.90;;;;;;5066393;28;20654;-63
2022/09/29 07:18:59;;;;;;;17.63;10.87;;;8.90;99.90;;;;;;5058115;28;20200;-63
2022/09/29 07:21:27;;;;;;;16.67;10.33;;;9.20;99.90;;;;;;5061120;28;20195;-62
2022/09/29 07:23:58;;;;;;;14.13;9.73;;;9.50;99.90;;;;;;5063992;28;20192;-62
2022/09/29 07:26:29;;;;;;;13.70;9.63;;;9.80;99.90;;;;;;5094403;28;20199;-63
2022/09/29 07:28:58;;;;;;;15.73;10.03;;;10.10;99.90;;;;;;5068623;28;20204;-62
2022/09/29 07:31:27;;;;;;;13.10;9.57;;;10.40;99.90;;;;;;5064312;28;20261;-63
2022/09/29 07:33:58;;;;;;;14.33;10.30;;;10.70;99.90;;;;;;5062569;28;20199;-63
2022/09/29 07:36:27;;;;;;;11.60;8.83;;;10.90;99.90;;;;;;5066850;28;20216;-63
2022/09/29 07:38:55;;;;;;;16.60;9.63;;;10.90;99.90;;;;;;5067878;28;20221;-63
2022/09/29 07:41:23;;;;;;;14.10;10.40;;;10.90;99.90;;;;;;5066415;28;20192;-63
2022/09/29 07:43:52;;;;;;;13.43;9.60;;;10.90;99.90;;;;;;5068720;28;20720;-63
2022/09/29 07:46:20;;;;;;;10.80;8.90;;;11.00;99.90;;;;;;5063400;28;20192;-63
2022/09/29 07:48:50;;;;;;;15.63;10.77;;;11.00;99.90;;;;;;5066257;28;20192;-63
2022/09/29 07:51:20;;;;;;;13.00;9.23;;;11.00;99.90;;;;;;5067339;28;20200;-63
2022/09/29 07:53:49;;;;;;;12.37;8.40;;;11.00;99.90;;;;;;5064051;28;20266;-63
2022/09/29 07:56:19;;;;;;;15.13;12.30;;;11.10;99.90;;;;;;5067576;28;20574;-63
2022/09/29 07:58:49;;;;;;;17.47;10.57;;;11.10;99.90;;;;;;5076363;28;20191;-63
2022/09/29 08:01:19;;;;;;;11.33;9.77;;;11.20;99.90;;;;;;5073532;28;20587;-63
2022/09/29 08:03:52;;;;;;;14.27;9.67;;;11.40;99.90;;;;;;5097926;28;20281;-63
2022/09/29 08:06:21;;;;;;;10.03;7.77;;;11.70;99.90;;;;;;5066620;28;20227;-63
2022/09/29 08:08:50;;;;;;;9.80;7.90;;;11.60;99.90;;;;;;5063606;28;20214;-63
2022/09/29 08:11:31;;;;;;;13.60;10.67;;;11.50;99.90;;;;;;5066027;28;20283;-63
2022/09/29 08:14:01;;;;;;;14.20;9.13;;;11.50;99.90;;;;;;5067202;28;20198;-63
2022/09/29 08:16:29;;;;;;;7.67;6.27;;;11.70;99.90;;;;;;5046750;28;20231;-63
2022/09/29 08:18:59;;;;;;;8.53;6.67;;;12.00;99.90;;;;;;5065771;28;20923;-63
2022/09/29 08:21:28;;;;;;;7.57;6.20;;;12.10;99.90;;;;;;5068447;28;20199;-63
2022/09/29 08:23:56;;;;;;;9.53;6.90;;;12.10;99.90;;;;;;5044601;28;20189;-64
2022/09/29 08:26:25;;;;;;;9.37;7.07;;;12.20;99.90;;;;;;5070185;28;20275;-64
2022/09/29 08:29:09;;;;;;;6.77;5.83;;;12.50;99.90;;;;;;5072759;28;20271;-64
2022/09/29 08:31:43;;;;;;;7.83;6.07;;;12.70;99.90;;;;;;5066514;28;20207;-64
2022/09/29 08:34:14;;;;;;;6.97;5.30;;;12.70;99.90;;;;;;5064919;28;20200;-64
2022/09/29 08:36:43;;;;;;;11.57;9.53;;;12.80;99.90;;;;;;5075517;28;20208;-63
2022/09/29 08:39:13;;;;;;;5.97;5.37;;;12.90;99.90;;;;;;5070580;28;20262;-63
2022/09/29 08:41:53;;;;;;;6.23;5.20;;;12.90;99.90;;;;;;5066025;28;20203;-63
2022/09/29 08:44:29;;;;;;;8.07;7.27;;;13.00;99.90;;;;;;5075143;28;20541;-63
2022/09/29 08:47:16;;;;;;;5.27;4.83;;;13.10;99.90;;;;;;5069268;28;20287;-63
2022/09/29 08:49:50;;;;;;;8.90;6.40;;;13.30;99.90;;;;;;5065118;28;20196;-63
2022/09/29 08:52:22;;;;;;;6.53;5.07;;;13.40;99.90;;;;;;5070883;28;20199;-63
2022/09/29 08:54:56;;;;;;;6.40;4.93;;;13.30;99.90;;;;;;5063215;28;20234;-63
2022/09/29 08:57:25;;;;;;;10.40;4.93;;;13.20;99.90;;;;;;5070311;28;20235;-63
2022/09/29 08:59:55;;;;;;;7.43;4.80;;;13.20;99.90;;;;;;5078912;28;20200;-63
2022/09/29 09:02:55;;;;;;;5.37;4.40;;;13.30;99.90;;;;;;5068624;28;20546;-63
2022/09/29 09:05:46;;;;;;;5.80;4.97;;;13.20;99.90;;;;;;5065194;28;20232;-63
2022/09/29 09:08:26;;;;;;;4.90;4.53;;;13.40;99.90;;;;;;5062615;28;20812;-64
2022/09/29 09:11:06;;;;;;;10.93;9.83;;;13.60;99.90;;;;;;5075779;28;20260;-63
2022/09/29 09:13:51;;;;;;;9.10;7.73;;;13.70;99.90;;;;;;5076674;28;20203;-63
2022/09/29 09:16:31;;;;;;;3.90;3.60;;;13.90;99.90;;;;;;5061800;28;20201;-64
2022/09/29 09:19:36;;;;;;;3.57;3.43;;;14.00;99.90;;;;;;5095698;28;20209;-64
2022/09/29 09:22:19;;;;;;;3.70;3.40;;;14.10;99.90;;;;;;5072533;28;20233;-64
2022/09/29 09:24:53;;;;;;;5.23;4.17;;;14.20;99.90;;;;;;5069013;28;20200;-63
2022/09/29 09:27:26;;;;;;;4.43;4.03;;;14.40;99.90;;;;;;5067081;28;20197;-63
2022/09/29 09:30:03;;;;;;;4.27;3.93;;;14.40;99.90;;;;;;5101616;27;20197;-64
2022/09/29 09:32:37;;;;;;;3.90;3.60;;;14.40;99.90;;;;;;5066335;28;20192;-63
2022/09/29 09:35:28;;;;;;;4.23;3.93;;;14.30;99.90;;;;;;5064439;28;20203;-63
2022/09/29 09:38:02;;;;;;;9.40;7.67;;;14.20;99.90;;;;;;5101594;28;20204;-63
2022/09/29 09:40:38;;;;;;;5.57;4.43;;;14.40;99.90;;;;;;5070101;28;20192;-63
2022/09/29 09:43:13;;;;;;;4.73;4.10;;;14.50;99.90;;;;;;5059814;28;20209;-63
2022/09/29 09:45:47;;;;;;;4.93;4.20;;;14.70;99.90;;;;;;5068687;28;20209;-63
2022/09/29 09:48:23;;;;;;;4.57;4.23;;;14.90;99.90;;;;;;5062241;28;20550;-63
2022/09/29 09:51:00;;;;;;;4.37;4.00;;;14.90;99.90;;;;;;5073916;28;20195;-64
2022/09/29 09:53:35;;;;;;;3.83;3.53;;;14.80;99.90;;;;;;5072725;28;20193;-63
2022/09/29 09:56:15;;;;;;;4.50;4.13;;;15.00;99.90;;;;;;5068297;28;20635;-63
2022/09/29 09:59:11;;;;;;;4.63;4.10;;;15.20;99.90;;;;;;5078180;28;20660;-64
2022/09/29 10:01:40;;;;;;;5.17;4.17;;;15.40;99.90;;;;;;5064578;28;20217;-64
2022/09/29 10:04:13;;;;;;;3.70;3.50;;;15.40;99.90;;;;;;5070665;28;20551;-64
2022/09/29 10:06:42;;;;;;;5.43;3.60;;;15.30;99.90;;;;;;5102902;27;20229;-64
2022/09/29 10:09:15;;;;;;;7.00;3.23;;;15.40;99.90;;;;;;5067971;28;20270;-64
2022/09/29 10:11:45;;;;;;;3.10;2.90;;;15.60;99.90;;;;;;5064756;28;20199;-64
2022/09/29 10:14:19;;;;;;;3.53;3.23;;;15.80;99.90;;;;;;5071721;28;20208;-64
2022/09/29 10:16:51;;;;;;;2.50;2.30;;;15.90;99.90;;;;;;5097700;28;20189;-63
2022/09/29 10:19:22;;;;;;;1.90;1.90;;;16.10;99.90;;;;;;5063639;28;20220;-64
2022/09/29 10:21:51;;;;;;;2.07;1.97;;;16.00;99.90;;;;;;5059641;28;20219;-64
2022/09/29 10:24:27;;;;;;;2.20;2.10;;;16.30;99.90;;;;;;5066320;28;20670;-64
2022/09/29 10:26:59;;;;;;;1.90;1.73;;;16.20;99.90;;;;;;5069222;28;20196;-64
2022/09/29 10:29:33;;;;;;;2.00;1.40;;;16.00;99.90;;;;;;5077281;28;20589;-63
2022/09/29 10:32:06;;;;;;;1.50;1.50;;;15.60;99.90;;;;;;5066626;28;20194;-63
2022/09/29 10:34:37;;;;;;;1.60;1.50;;;15.80;99.90;;;;;;5068912;28;20200;-64
2022/09/29 10:37:21;;;;;;;1.20;1.20;;;15.90;99.90;;;;;;5071316;28;20235;-64
2022/09/29 10:39:51;;;;;;;1.47;1.37;;;15.90;99.90;;;;;;5071458;28;20202;-63
2022/09/29 10:42:24;;;;;;;2.63;1.50;;;15.80;99.90;;;;;;5070462;28;20267;-63
2022/09/29 10:44:55;;;;;;;1.10;1.10;;;15.80;99.90;;;;;;5067648;28;20215;-63
2022/09/29 10:47:24;;;;;;;5.40;1.40;;;16.20;99.90;;;;;;5087601;28;20187;-63
2022/09/29 10:50:08;;;;;;;1.20;1.20;;;16.70;99.90;;;;;;5057761;28;20283;-63
2022/09/29 10:52:37;;;;;;;1.10;1.10;;;17.10;99.90;;;;;;5056836;28;20242;-64
2022/09/29 10:55:17;;;;;;;5.23;3.67;;;17.50;99.90;;;;;;5060341;28;20204;-64
2022/09/29 10:57:46;;;;;;;1.43;1.20;;;17.60;99.90;;;;;;5059593;28;20212;-64
2022/09/29 11:00:29;;;;;;;1.37;1.30;;;17.60;99.90;;;;;;5062992;28;20237;-64
2022/09/29 11:03:06;;;;;;;0.97;0.97;;;17.70;99.90;;;;;;5064122;28;20211;-64
2022/09/29 11:05:35;;;;;;;1.00;1.00;;;17.80;99.90;;;;;;5061817;28;20258;-64
2022/09/29 11:08:04;;;;;;;1.00;1.00;;;18.10;99.90;;;;;;5068899;28;20185;-64
2022/09/29 11:10:35;;;;;;;1.27;1.00;;;18.40;99.90;;;;;;5063592;28;20223;-64
2022/09/29 11:13:39;;;;;;;0.80;0.80;;;18.50;99.90;;;;;;5057901;28;20204;-64
2022/09/29 11:16:15;;;;;;;1.20;1.17;;;18.60;99.90;;;;;;5054829;28;20212;-64
2022/09/29 11:18:46;;;;;;;1.70;0.70;;;18.90;99.90;;;;;;5064236;28;20694;-64
2022/09/29 11:21:54;;;;;;;0.80;0.80;;;19.30;99.90;;;;;;5064802;28;20258;-64
2022/09/29 11:24:35;;;;;;;0.70;0.70;;;19.20;99.90;;;;;;5065782;28;20209;-64
2022/09/29 11:27:12;;;;;;;0.87;0.87;;;18.80;99.90;;;;;;5069897;28;20192;-63
2022/09/29 11:29:49;;;;;;;0.77;0.77;;;18.30;99.90;;;;;;5062086;28;20191;-64
2022/09/29 11:32:33;;;;;;;2.83;1.00;;;17.90;99.90;;;;;;5064740;28;20197;-64
2022/09/29 11:35:15;;;;;;;1.10;1.10;;;17.50;99.90;;;;;;5058904;28;20191;-64
2022/09/29 11:38:04;;;;;;;2.43;0.90;;;17.20;99.90;;;;;;5064142;28;20598;-64
2022/09/29 11:40:46;;;;;;;1.37;1.37;;;16.80;99.90;;;;;;5056487;28;20200;-63
2022/09/29 11:43:29;;;;;;;0.87;0.87;;;16.70;99.90;;;;;;5061000;28;20285;-63
2022/09/29 11:46:05;;;;;;;0.97;0.90;;;16.70;99.90;;;;;;5062984;28;20208;-63
2022/09/29 11:48:54;;;;;;;1.00;1.00;;;16.60;99.90;;;;;;5063438;28;20275;-64
2022/09/29 11:51:32;;;;;;;1.00;1.00;;;16.60;99.90;;;;;;5062807;28;20216;-63
2022/09/29 11:54:15;;;;;;;4.33;0.90;;;17.00;99.90;;;;;;5060053;28;20208;-64
2022/09/29 11:56:50;;;;;;;1.43;1.00;;;17.80;99.90;;;;;;5072704;28;20199;-64
2022/09/29 11:59:40;;;;;;;0.90;0.90;;;18.30;99.90;;;;;;5063957;28;20208;-64
2022/09/29 12:02:59;;;;;;;0.90;0.90;;;18.60;99.90;;;;;;5068232;28;20203;-64
2022/09/29 12:05:37;;;;;;;1.10;0.83;;;18.60;99.90;;;;;;5071045;28;20231;-63
2022/09/29 12:08:17;;;;;;;0.90;0.90;;;18.20;99.90;;;;;;5061892;28;20204;-64
2022/09/29 12:10:55;;;;;;;1.30;1.20;;;17.90;99.90;;;;;;5074878;28;20203;-64
2022/09/29 12:13:33;;;;;;;1.43;0.90;;;17.80;99.90;;;;;;5074473;28;20550;-63
2022/09/29 12:16:07;;;;;;;1.00;1.00;;;17.60;99.90;;;;;;5065886;28;20196;-63
2022/09/29 12:18:40;;;;;;;1.10;1.10;;;17.30;99.90;;;;;;5067866;28;20658;-63
2022/09/29 12:21:11;;;;;;;1.30;1.20;;;16.80;99.90;;;;;;5060827;28;20539;-63
2022/09/29 12:23:46;;;;;;;2.80;1.10;;;16.30;99.90;;;;;;5080172;28;20196;-63
2022/09/29 12:26:19;;;;;;;1.10;1.10;;;15.90;99.90;;;;;;5071869;28;20195;-63
2022/09/29 12:28:54;;;;;;;1.30;1.20;;;15.70;99.90;;;;;;5079906;28;20656;-63
2022/09/29 12:31:27;;;;;;;3.67;1.40;;;15.50;99.90;;;;;;5085975;28;20215;-64
2022/09/29 12:33:59;;;;;;;1.30;1.20;;;15.30;99.90;;;;;;5072727;28;20199;-63
2022/09/29 12:36:45;;;;;;;1.53;1.43;;;15.10;99.90;;;;;;5094841;28;20206;-63
2022/09/29 12:39:46;;;;;;;2.20;1.60;;;15.00;99.90;;;;;;5102972;27;20689;-63
2022/09/29 12:42:28;;;;;;;2.20;1.40;;;14.90;99.90;;;;;;5069456;28;20239;-63
2022/09/29 12:45:04;;;;;;;2.20;2.00;;;14.70;99.90;;;;;;5068710;28;20209;-63
2022/09/29 12:47:58;;;;;;;3.43;2.43;;;14.70;99.90;;;;;;5063096;28;20204;-63
2022/09/29 12:50:33;;;;;;;3.30;3.10;;;14.60;99.90;;;;;;5060002;28;20673;-63
2022/09/29 12:53:10;;;;;;;2.30;2.20;;;14.60;99.90;;;;;;5062207;28;20198;-63
2022/09/29 12:55:46;;;;;;;1.70;1.70;;;14.70;99.90;;;;;;5069384;28;20205;-63
2022/09/29 12:58:22;;;;;;;2.40;2.30;;;14.80;99.90;;;;;;5070051;28;20214;-63
2022/09/29 13:01:01;;;;;;;1.53;1.23;;;14.90;99.90;;;;;;5071332;28;20226;-63
2022/09/29 13:03:46;;;;;;;1.40;1.30;;;14.90;99.90;;;;;;5072255;28;20251;-63
2022/09/29 13:06:44;;;;;;;1.33;1.33;;;15.00;99.90;;;;;;5063496;28;20618;-63
2022/09/29 13:09:29;;;;;;;2.30;1.57;;;15.20;99.90;;;;;;5067128;28;20205;-63
2022/09/29 13:12:23;;;;;;;1.40;1.40;;;15.30;99.90;;;;;;5073986;28;20228;-63
2022/09/29 13:15:07;;;;;;;1.40;1.30;;;15.30;99.90;;;;;;5057885;28;20202;-63
2022/09/29 13:17:49;;;;;;;1.57;1.07;;;15.30;99.90;;;;;;5068820;28;20195;-63
2022/09/29 13:20:47;;;;;;;1.80;1.70;;;15.30;99.90;;;;;;5066869;28;20230;-63